Sand Springs, Montana
Current Conditions -  °F | °C
As of 5:20 AM on Friday 19 Dec 2014 (Local Time) from KMVH Reporting Station
Clear Clear  
Wind Chill: 17°   Ceiling: Unl
Heat Index: 23°   Visibility: 10mi
Dew Point: 18°   Wind: 5mph
Humidity: 80%   Direction: 10°N
Pressure: 29.9"   Gusts: NA
Location:  47.1°N, 107.49°W
Report Text: KMVH 191220Z AUTO 01004KT 10SM CLR M05/M08 A2990 RMK A01
Loading
Personal Weather Stations






























Interactive Weather Map New forecast layout! Learn more

10-Day Weather Forecast

Advertisements
Track Severe Weather on mobile